sensor_id;sensor_type;location;lat;lon;timestamp;P1;durP1;ratioP1;P2;durP2;ratioP2
76727;SDS011;65652;53.132;18.026;2024-01-30T00:02:15;27.10;;;10.50;;
76727;SDS011;65652;53.132;18.026;2024-01-30T00:04:41;23.30;;;10.70;;
76727;SDS011;65652;53.132;18.026;2024-01-30T00:07:07;25.00;;;11.30;;
76727;SDS011;65652;53.132;18.026;2024-01-30T00:09:33;28.10;;;11.80;;
76727;SDS011;65652;53.132;18.026;2024-01-30T00:12:00;26.70;;;11.00;;
76727;SDS011;65652;53.132;18.026;2024-01-30T00:16:54;29.00;;;11.10;;
76727;SDS011;65652;53.132;18.026;2024-01-30T00:19:20;29.80;;;12.50;;
76727;SDS011;65652;53.132;18.026;2024-01-30T00:21:47;34.80;;;14.20;;
76727;SDS011;65652;53.132;18.026;2024-01-30T00:24:13;33.80;;;15.30;;
76727;SDS011;65652;53.132;18.026;2024-01-30T00:26:39;36.00;;;15.60;;
76727;SDS011;65652;53.132;18.026;2024-01-30T00:29:05;45.10;;;19.50;;
76727;SDS011;65652;53.132;18.026;2024-01-30T00:31:31;44.60;;;18.20;;
76727;SDS011;65652;53.132;18.026;2024-01-30T00:33:57;44.50;;;18.30;;
76727;SDS011;65652;53.132;18.026;2024-01-30T00:36:24;41.90;;;16.70;;
76727;SDS011;65652;53.132;18.026;2024-01-30T00:38:50;35.10;;;15.50;;
76727;SDS011;65652;53.132;18.026;2024-01-30T00:41:17;36.40;;;14.90;;
76727;SDS011;65652;53.132;18.026;2024-01-30T00:43:43;26.30;;;12.40;;
76727;SDS011;65652;53.132;18.026;2024-01-30T00:46:09;33.30;;;13.60;;
76727;SDS011;65652;53.132;18.026;2024-01-30T00:48:35;29.10;;;11.70;;
76727;SDS011;65652;53.132;18.026;2024-01-30T00:51:01;27.60;;;10.50;;
76727;SDS011;65652;53.132;18.026;2024-01-30T00:53:28;33.00;;;13.50;;
76727;SDS011;65652;53.132;18.026;2024-01-30T00:55:54;24.00;;;11.20;;
76727;SDS011;65652;53.132;18.026;2024-01-30T00:58:20;26.30;;;11.80;;
76727;SDS011;65652;53.132;18.026;2024-01-30T01:00:46;31.00;;;13.80;;
76727;SDS011;65652;53.132;18.026;2024-01-30T01:03:12;24.50;;;10.00;;
76727;SDS011;65652;53.132;18.026;2024-01-30T01:05:39;25.40;;;11.30;;
76727;SDS011;65652;53.132;18.026;2024-01-30T01:08:05;23.60;;;10.30;;
76727;SDS011;65652;53.132;18.026;2024-01-30T01:10:32;29.20;;;12.40;;
76727;SDS011;65652;53.132;18.026;2024-01-30T01:12:58;23.80;;;9.60;;
76727;SDS011;65652;53.132;18.026;2024-01-30T01:15:24;22.80;;;9.30;;
76727;SDS011;65652;53.132;18.026;2024-01-30T01:17:50;26.50;;;9.70;;
76727;SDS011;65652;53.132;18.026;2024-01-30T01:20:16;24.60;;;9.90;;
76727;SDS011;65652;53.132;18.026;2024-01-30T01:22:42;27.10;;;10.80;;
76727;SDS011;65652;53.132;18.026;2024-01-30T01:25:08;27.50;;;10.90;;
76727;SDS011;65652;53.132;18.026;2024-01-30T01:27:36;25.20;;;10.20;;
76727;SDS011;65652;53.132;18.026;2024-01-30T01:30:09;19.30;;;8.40;;
76727;SDS011;65652;53.132;18.026;2024-01-30T01:32:37;27.30;;;10.10;;
76727;SDS011;65652;53.132;18.026;2024-01-30T01:35:04;23.70;;;9.70;;
76727;SDS011;65652;53.132;18.026;2024-01-30T01:37:31;25.20;;;10.60;;
76727;SDS011;65652;53.132;18.026;2024-01-30T01:39:57;30.10;;;11.20;;
76727;SDS011;65652;53.132;18.026;2024-01-30T01:42:23;30.30;;;12.60;;
76727;SDS011;65652;53.132;18.026;2024-01-30T01:44:49;23.40;;;9.80;;
76727;SDS011;65652;53.132;18.026;2024-01-30T01:47:16;31.10;;;12.30;;
76727;SDS011;65652;53.132;18.026;2024-01-30T01:49:42;33.70;;;13.60;;
76727;SDS011;65652;53.132;18.026;2024-01-30T01:52:08;28.40;;;12.00;;
76727;SDS011;65652;53.132;18.026;2024-01-30T01:54:35;28.70;;;11.80;;
76727;SDS011;65652;53.132;18.026;2024-01-30T01:57:02;31.30;;;13.20;;
76727;SDS011;65652;53.132;18.026;2024-01-30T01:59:29;26.30;;;10.20;;
76727;SDS011;65652;53.132;18.026;2024-01-30T02:01:56;24.50;;;10.50;;
76727;SDS011;65652;53.132;18.026;2024-01-30T02:04:22;26.50;;;10.30;;
76727;SDS011;65652;53.132;18.026;2024-01-30T02:06:48;28.50;;;12.00;;
76727;SDS011;65652;53.132;18.026;2024-01-30T02:09:15;29.20;;;11.90;;
76727;SDS011;65652;53.132;18.026;2024-01-30T02:11:41;30.90;;;12.20;;
76727;SDS011;65652;53.132;18.026;2024-01-30T02:14:08;32.10;;;12.60;;
76727;SDS011;65652;53.132;18.026;2024-01-30T02:16:34;30.70;;;12.70;;
76727;SDS011;65652;53.132;18.026;2024-01-30T02:19:00;30.30;;;12.70;;
76727;SDS011;65652;53.132;18.026;2024-01-30T02:21:26;34.70;;;13.30;;
76727;SDS011;65652;53.132;18.026;2024-01-30T02:23:52;33.10;;;13.00;;
76727;SDS011;65652;53.132;18.026;2024-01-30T02:26:21;31.90;;;12.70;;
76727;SDS011;65652;53.132;18.026;2024-01-30T02:28:47;31.40;;;13.20;;
76727;SDS011;65652;53.132;18.026;2024-01-30T02:31:13;32.70;;;13.80;;
76727;SDS011;65652;53.132;18.026;2024-01-30T02:33:40;30.60;;;13.40;;
76727;SDS011;65652;53.132;18.026;2024-01-30T02:36:06;32.50;;;13.30;;
76727;SDS011;65652;53.132;18.026;2024-01-30T02:38:32;32.10;;;12.80;;
76727;SDS011;65652;53.132;18.026;2024-01-30T02:40:58;32.00;;;13.30;;
76727;SDS011;65652;53.132;18.026;2024-01-30T02:43:24;33.00;;;13.50;;
76727;SDS011;65652;53.132;18.026;2024-01-30T02:45:50;31.00;;;12.60;;
76727;SDS011;65652;53.132;18.026;2024-01-30T02:48:16;30.20;;;13.20;;
76727;SDS011;65652;53.132;18.026;2024-01-30T02:50:43;33.20;;;12.90;;
76727;SDS011;65652;53.132;18.026;2024-01-30T02:53:09;30.80;;;13.00;;
76727;SDS011;65652;53.132;18.026;2024-01-30T02:55:35;32.80;;;13.40;;
76727;SDS011;65652;53.132;18.026;2024-01-30T02:58:01;31.20;;;12.80;;
76727;SDS011;65652;53.132;18.026;2024-01-30T03:00:27;31.80;;;13.20;;
76727;SDS011;65652;53.132;18.026;2024-01-30T03:02:53;31.30;;;12.90;;
76727;SDS011;65652;53.132;18.026;2024-01-30T03:05:20;31.00;;;13.30;;
76727;SDS011;65652;53.132;18.026;2024-01-30T03:07:46;31.00;;;13.10;;
76727;SDS011;65652;53.132;18.026;2024-01-30T03:10:12;29.30;;;13.10;;
76727;SDS011;65652;53.132;18.026;2024-01-30T03:12:38;34.30;;;13.20;;
76727;SDS011;65652;53.132;18.026;2024-01-30T03:15:04;31.90;;;12.90;;
76727;SDS011;65652;53.132;18.026;2024-01-30T03:17:31;31.50;;;12.60;;
76727;SDS011;65652;53.132;18.026;2024-01-30T03:19:58;32.60;;;13.40;;
76727;SDS011;65652;53.132;18.026;2024-01-30T03:22:24;30.00;;;13.10;;
76727;SDS011;65652;53.132;18.026;2024-01-30T03:24:50;31.40;;;13.30;;
76727;SDS011;65652;53.132;18.026;2024-01-30T03:27:16;31.20;;;12.70;;
76727;SDS011;65652;53.132;18.026;2024-01-30T03:29:42;29.70;;;13.10;;
76727;SDS011;65652;53.132;18.026;2024-01-30T03:32:08;30.80;;;12.50;;
76727;SDS011;65652;53.132;18.026;2024-01-30T03:34:34;32.00;;;12.30;;
76727;SDS011;65652;53.132;18.026;2024-01-30T03:37:00;33.70;;;13.50;;
76727;SDS011;65652;53.132;18.026;2024-01-30T03:39:27;32.30;;;13.70;;
76727;SDS011;65652;53.132;18.026;2024-01-30T03:41:53;33.60;;;13.10;;
76727;SDS011;65652;53.132;18.026;2024-01-30T03:44:19;32.50;;;13.20;;
76727;SDS011;65652;53.132;18.026;2024-01-30T03:46:45;33.30;;;13.80;;
76727;SDS011;65652;53.132;18.026;2024-01-30T03:49:12;29.50;;;12.40;;
76727;SDS011;65652;53.132;18.026;2024-01-30T03:51:38;31.60;;;13.40;;
76727;SDS011;65652;53.132;18.026;2024-01-30T03:54:04;31.80;;;14.00;;
76727;SDS011;65652;53.132;18.026;2024-01-30T03:56:30;32.00;;;13.30;;
76727;SDS011;65652;53.132;18.026;2024-01-30T03:58:56;34.00;;;13.60;;
76727;SDS011;65652;53.132;18.026;2024-01-30T04:01:24;33.30;;;13.60;;
76727;SDS011;65652;53.132;18.026;2024-01-30T04:03:50;32.80;;;14.10;;
76727;SDS011;65652;53.132;18.026;2024-01-30T04:06:17;33.00;;;14.10;;
76727;SDS011;65652;53.132;18.026;2024-01-30T04:08:43;33.20;;;14.20;;
76727;SDS011;65652;53.132;18.026;2024-01-30T04:11:09;34.40;;;14.40;;
76727;SDS011;65652;53.132;18.026;2024-01-30T04:13:35;31.80;;;14.70;;
76727;SDS011;65652;53.132;18.026;2024-01-30T04:16:01;31.90;;;14.00;;
76727;SDS011;65652;53.132;18.026;2024-01-30T04:18:28;31.80;;;14.20;;
76727;SDS011;65652;53.132;18.026;2024-01-30T04:20:55;29.60;;;13.70;;
76727;SDS011;65652;53.132;18.026;2024-01-30T04:23:21;31.90;;;13.50;;
76727;SDS011;65652;53.132;18.026;2024-01-30T04:25:47;32.30;;;14.10;;
76727;SDS011;65652;53.132;18.026;2024-01-30T04:28:13;33.80;;;13.10;;
76727;SDS011;65652;53.132;18.026;2024-01-30T04:30:40;35.20;;;14.30;;
76727;SDS011;65652;53.132;18.026;2024-01-30T04:33:06;28.80;;;13.30;;
76727;SDS011;65652;53.132;18.026;2024-01-30T04:35:32;30.10;;;13.40;;
76727;SDS011;65652;53.132;18.026;2024-01-30T04:37:58;33.70;;;13.90;;
76727;SDS011;65652;53.132;18.026;2024-01-30T04:40:24;34.80;;;13.80;;
76727;SDS011;65652;53.132;18.026;2024-01-30T04:42:51;34.70;;;13.90;;
76727;SDS011;65652;53.132;18.026;2024-01-30T04:45:17;32.40;;;13.50;;
76727;SDS011;65652;53.132;18.026;2024-01-30T04:47:43;30.70;;;13.70;;
76727;SDS011;65652;53.132;18.026;2024-01-30T04:50:09;31.30;;;12.80;;
76727;SDS011;65652;53.132;18.026;2024-01-30T04:52:35;29.80;;;13.80;;
76727;SDS011;65652;53.132;18.026;2024-01-30T04:55:01;30.30;;;13.50;;
76727;SDS011;65652;53.132;18.026;2024-01-30T04:57:28;29.30;;;13.80;;
76727;SDS011;65652;53.132;18.026;2024-01-30T04:59:54;30.40;;;13.40;;
76727;SDS011;65652;53.132;18.026;2024-01-30T05:02:20;34.30;;;14.50;;
76727;SDS011;65652;53.132;18.026;2024-01-30T05:04:46;36.10;;;15.10;;
76727;SDS011;65652;53.132;18.026;2024-01-30T05:07:12;27.20;;;11.80;;
76727;SDS011;65652;53.132;18.026;2024-01-30T05:09:38;31.00;;;13.30;;
76727;SDS011;65652;53.132;18.026;2024-01-30T05:12:04;29.40;;;13.10;;
76727;SDS011;65652;53.132;18.026;2024-01-30T05:14:31;32.00;;;13.70;;
76727;SDS011;65652;53.132;18.026;2024-01-30T05:16:57;33.70;;;14.30;;
76727;SDS011;65652;53.132;18.026;2024-01-30T05:19:23;34.00;;;13.80;;
76727;SDS011;65652;53.132;18.026;2024-01-30T05:21:49;34.20;;;13.60;;
76727;SDS011;65652;53.132;18.026;2024-01-30T05:24:16;36.80;;;14.50;;
76727;SDS011;65652;53.132;18.026;2024-01-30T05:26:42;30.80;;;13.00;;
76727;SDS011;65652;53.132;18.026;2024-01-30T05:29:08;30.70;;;13.80;;
76727;SDS011;65652;53.132;18.026;2024-01-30T05:31:34;34.80;;;14.20;;
76727;SDS011;65652;53.132;18.026;2024-01-30T05:34:01;32.80;;;14.30;;
76727;SDS011;65652;53.132;18.026;2024-01-30T05:36:27;36.80;;;14.30;;
76727;SDS011;65652;53.132;18.026;2024-01-30T05:38:53;33.70;;;13.40;;
76727;SDS011;65652;53.132;18.026;2024-01-30T05:41:19;34.40;;;14.00;;
76727;SDS011;65652;53.132;18.026;2024-01-30T05:43:46;31.60;;;14.40;;
76727;SDS011;65652;53.132;18.026;2024-01-30T05:46:13;30.60;;;13.70;;
76727;SDS011;65652;53.132;18.026;2024-01-30T05:48:39;30.70;;;14.00;;
76727;SDS011;65652;53.132;18.026;2024-01-30T05:51:06;34.80;;;13.90;;
76727;SDS011;65652;53.132;18.026;2024-01-30T05:53:34;29.60;;;13.20;;
76727;SDS011;65652;53.132;18.026;2024-01-30T05:56:03;30.20;;;12.90;;
76727;SDS011;65652;53.132;18.026;2024-01-30T05:58:30;24.10;;;10.20;;
76727;SDS011;65652;53.132;18.026;2024-01-30T06:00:59;30.30;;;11.80;;
76727;SDS011;65652;53.132;18.026;2024-01-30T06:03:25;30.40;;;11.80;;
76727;SDS011;65652;53.132;18.026;2024-01-30T06:05:52;32.70;;;13.60;;
76727;SDS011;65652;53.132;18.026;2024-01-30T06:08:18;32.20;;;13.00;;
76727;SDS011;65652;53.132;18.026;2024-01-30T06:10:44;28.00;;;10.60;;
76727;SDS011;65652;53.132;18.026;2024-01-30T06:13:10;25.00;;;11.10;;
76727;SDS011;65652;53.132;18.026;2024-01-30T06:15:36;29.80;;;12.00;;
76727;SDS011;65652;53.132;18.026;2024-01-30T06:18:02;28.20;;;11.30;;
76727;SDS011;65652;53.132;18.026;2024-01-30T06:20:29;29.80;;;12.50;;
76727;SDS011;65652;53.132;18.026;2024-01-30T06:22:55;35.40;;;14.40;;
76727;SDS011;65652;53.132;18.026;2024-01-30T06:25:21;32.00;;;13.90;;
76727;SDS011;65652;53.132;18.026;2024-01-30T06:27:47;35.30;;;14.00;;
76727;SDS011;65652;53.132;18.026;2024-01-30T06:30:13;32.70;;;13.70;;
76727;SDS011;65652;53.132;18.026;2024-01-30T06:32:40;35.50;;;14.90;;
76727;SDS011;65652;53.132;18.026;2024-01-30T06:35:06;36.40;;;14.60;;
76727;SDS011;65652;53.132;18.026;2024-01-30T06:37:32;37.90;;;15.00;;
76727;SDS011;65652;53.132;18.026;2024-01-30T06:39:58;33.70;;;13.70;;
76727;SDS011;65652;53.132;18.026;2024-01-30T06:42:25;30.80;;;13.10;;
76727;SDS011;65652;53.132;18.026;2024-01-30T06:44:51;30.80;;;12.80;;
76727;SDS011;65652;53.132;18.026;2024-01-30T06:47:17;30.50;;;13.20;;
76727;SDS011;65652;53.132;18.026;2024-01-30T06:49:43;25.80;;;12.10;;
76727;SDS011;65652;53.132;18.026;2024-01-30T06:52:09;24.00;;;11.20;;
76727;SDS011;65652;53.132;18.026;2024-01-30T06:54:35;29.90;;;12.20;;
76727;SDS011;65652;53.132;18.026;2024-01-30T06:57:02;25.20;;;10.90;;
76727;SDS011;65652;53.132;18.026;2024-01-30T06:59:29;21.70;;;11.10;;
76727;SDS011;65652;53.132;18.026;2024-01-30T07:01:55;21.70;;;9.20;;
76727;SDS011;65652;53.132;18.026;2024-01-30T07:04:21;23.40;;;9.40;;
76727;SDS011;65652;53.132;18.026;2024-01-30T07:06:47;26.30;;;10.90;;
76727;SDS011;65652;53.132;18.026;2024-01-30T07:09:13;23.50;;;9.30;;
76727;SDS011;65652;53.132;18.026;2024-01-30T07:11:39;22.40;;;9.70;;
76727;SDS011;65652;53.132;18.026;2024-01-30T07:14:07;23.50;;;9.50;;
76727;SDS011;65652;53.132;18.026;2024-01-30T07:16:34;22.80;;;8.70;;
76727;SDS011;65652;53.132;18.026;2024-01-30T07:19:00;21.40;;;8.60;;
76727;SDS011;65652;53.132;18.026;2024-01-30T07:21:27;21.50;;;9.80;;
76727;SDS011;65652;53.132;18.026;2024-01-30T07:23:54;25.10;;;9.90;;
76727;SDS011;65652;53.132;18.026;2024-01-30T07:26:21;22.80;;;9.10;;
76727;SDS011;65652;53.132;18.026;2024-01-30T07:28:47;21.10;;;8.70;;
76727;SDS011;65652;53.132;18.026;2024-01-30T07:31:13;18.10;;;7.90;;
76727;SDS011;65652;53.132;18.026;2024-01-30T07:33:39;19.90;;;8.50;;
76727;SDS011;65652;53.132;18.026;2024-01-30T07:36:06;22.00;;;8.60;;
76727;SDS011;65652;53.132;18.026;2024-01-30T07:38:32;21.00;;;8.70;;
76727;SDS011;65652;53.132;18.026;2024-01-30T07:40:58;18.70;;;7.80;;
76727;SDS011;65652;53.132;18.026;2024-01-30T07:43:24;20.40;;;8.70;;
76727;SDS011;65652;53.132;18.026;2024-01-30T07:45:50;20.00;;;8.00;;
76727;SDS011;65652;53.132;18.026;2024-01-30T07:48:17;20.30;;;8.10;;
76727;SDS011;65652;53.132;18.026;2024-01-30T07:50:43;22.00;;;9.90;;
76727;SDS011;65652;53.132;18.026;2024-01-30T07:53:09;17.00;;;7.70;;
76727;SDS011;65652;53.132;18.026;2024-01-30T07:55:35;17.40;;;7.40;;
76727;SDS011;65652;53.132;18.026;2024-01-30T07:58:01;20.50;;;8.00;;
76727;SDS011;65652;53.132;18.026;2024-01-30T08:00:29;19.30;;;7.80;;
76727;SDS011;65652;53.132;18.026;2024-01-30T08:02:55;22.00;;;8.50;;
76727;SDS011;65652;53.132;18.026;2024-01-30T08:05:22;18.50;;;7.60;;
76727;SDS011;65652;53.132;18.026;2024-01-30T08:07:49;21.30;;;9.40;;
76727;SDS011;65652;53.132;18.026;2024-01-30T08:10:15;18.10;;;8.10;;
76727;SDS011;65652;53.132;18.026;2024-01-30T08:12:41;17.70;;;7.70;;
76727;SDS011;65652;53.132;18.026;2024-01-30T08:15:07;17.40;;;8.00;;
76727;SDS011;65652;53.132;18.026;2024-01-30T08:17:34;19.30;;;8.70;;
76727;SDS011;65652;53.132;18.026;2024-01-30T08:20:00;18.10;;;7.50;;
76727;SDS011;65652;53.132;18.026;2024-01-30T08:22:26;21.80;;;9.60;;
76727;SDS011;65652;53.132;18.026;2024-01-30T08:24:52;23.50;;;10.00;;
76727;SDS011;65652;53.132;18.026;2024-01-30T08:27:18;21.30;;;9.40;;
76727;SDS011;65652;53.132;18.026;2024-01-30T08:29:44;21.10;;;9.40;;
76727;SDS011;65652;53.132;18.026;2024-01-30T08:32:11;18.50;;;8.90;;
76727;SDS011;65652;53.132;18.026;2024-01-30T08:34:37;23.60;;;9.70;;
76727;SDS011;65652;53.132;18.026;2024-01-30T08:37:03;22.00;;;9.00;;
76727;SDS011;65652;53.132;18.026;2024-01-30T08:39:29;15.60;;;7.40;;
76727;SDS011;65652;53.132;18.026;2024-01-30T08:41:56;19.90;;;7.80;;
76727;SDS011;65652;53.132;18.026;2024-01-30T08:44:22;21.80;;;9.50;;
76727;SDS011;65652;53.132;18.026;2024-01-30T08:46:48;21.40;;;9.60;;
76727;SDS011;65652;53.132;18.026;2024-01-30T08:49:16;22.70;;;9.70;;
76727;SDS011;65652;53.132;18.026;2024-01-30T08:51:42;19.10;;;8.30;;
76727;SDS011;65652;53.132;18.026;2024-01-30T08:54:08;21.60;;;10.00;;
76727;SDS011;65652;53.132;18.026;2024-01-30T08:56:35;18.10;;;7.90;;
76727;SDS011;65652;53.132;18.026;2024-01-30T08:59:01;17.50;;;8.20;;
76727;SDS011;65652;53.132;18.026;2024-01-30T09:01:27;18.10;;;8.40;;
76727;SDS011;65652;53.132;18.026;2024-01-30T09:03:53;19.70;;;9.30;;
76727;SDS011;65652;53.132;18.026;2024-01-30T09:06:19;16.10;;;7.30;;
76727;SDS011;65652;53.132;18.026;2024-01-30T09:08:45;17.40;;;7.80;;
76727;SDS011;65652;53.132;18.026;2024-01-30T09:11:12;17.00;;;8.00;;
76727;SDS011;65652;53.132;18.026;2024-01-30T09:13:40;18.70;;;7.80;;
76727;SDS011;65652;53.132;18.026;2024-01-30T09:16:07;20.70;;;7.30;;
76727;SDS011;65652;53.132;18.026;2024-01-30T09:18:33;21.10;;;8.70;;
76727;SDS011;65652;53.132;18.026;2024-01-30T09:20:59;19.30;;;8.70;;
76727;SDS011;65652;53.132;18.026;2024-01-30T09:23:26;16.50;;;6.90;;
76727;SDS011;65652;53.132;18.026;2024-01-30T09:25:54;16.30;;;7.10;;
76727;SDS011;65652;53.132;18.026;2024-01-30T09:28:21;18.90;;;8.00;;
76727;SDS011;65652;53.132;18.026;2024-01-30T09:30:47;21.60;;;8.20;;
76727;SDS011;65652;53.132;18.026;2024-01-30T09:33:13;18.70;;;7.50;;
76727;SDS011;65652;53.132;18.026;2024-01-30T09:35:39;18.20;;;7.50;;
76727;SDS011;65652;53.132;18.026;2024-01-30T09:38:05;18.90;;;8.20;;
76727;SDS011;65652;53.132;18.026;2024-01-30T09:40:32;16.40;;;7.20;;
76727;SDS011;65652;53.132;18.026;2024-01-30T09:42:58;16.20;;;6.60;;
76727;SDS011;65652;53.132;18.026;2024-01-30T09:45:25;18.20;;;7.20;;
76727;SDS011;65652;53.132;18.026;2024-01-30T09:47:52;17.10;;;7.60;;
76727;SDS011;65652;53.132;18.026;2024-01-30T09:50:19;18.40;;;7.50;;
76727;SDS011;65652;53.132;18.026;2024-01-30T09:52:46;18.60;;;7.80;;
76727;SDS011;65652;53.132;18.026;2024-01-30T09:55:13;19.20;;;8.70;;
76727;SDS011;65652;53.132;18.026;2024-01-30T09:57:39;16.20;;;7.00;;
76727;SDS011;65652;53.132;18.026;2024-01-30T10:00:07;19.20;;;8.80;;
76727;SDS011;65652;53.132;18.026;2024-01-30T10:02:40;16.40;;;7.50;;
76727;SDS011;65652;53.132;18.026;2024-01-30T10:05:07;18.20;;;8.20;;
76727;SDS011;65652;53.132;18.026;2024-01-30T10:07:34;15.10;;;7.10;;
76727;SDS011;65652;53.132;18.026;2024-01-30T10:10:00;17.80;;;7.10;;
76727;SDS011;65652;53.132;18.026;2024-01-30T10:12:26;14.40;;;6.70;;
76727;SDS011;65652;53.132;18.026;2024-01-30T10:14:55;15.90;;;7.50;;
76727;SDS011;65652;53.132;18.026;2024-01-30T10:17:24;20.90;;;8.60;;
76727;SDS011;65652;53.132;18.026;2024-01-30T10:19:51;19.60;;;8.20;;
76727;SDS011;65652;53.132;18.026;2024-01-30T10:22:17;16.50;;;7.60;;
76727;SDS011;65652;53.132;18.026;2024-01-30T10:24:44;17.40;;;7.90;;
76727;SDS011;65652;53.132;18.026;2024-01-30T10:27:11;16.30;;;6.80;;
76727;SDS011;65652;53.132;18.026;2024-01-30T10:29:37;15.30;;;7.10;;
76727;SDS011;65652;53.132;18.026;2024-01-30T10:32:04;20.00;;;9.30;;
76727;SDS011;65652;53.132;18.026;2024-01-30T10:34:31;18.80;;;8.70;;
76727;SDS011;65652;53.132;18.026;2024-01-30T10:37:08;20.00;;;8.40;;
76727;SDS011;65652;53.132;18.026;2024-01-30T10:39:44;16.90;;;6.80;;
76727;SDS011;65652;53.132;18.026;2024-01-30T10:42:14;18.10;;;8.10;;
76727;SDS011;65652;53.132;18.026;2024-01-30T10:47:49;17.80;;;7.90;;
76727;SDS011;65652;53.132;18.026;2024-01-30T10:50:16;17.90;;;7.40;;
76727;SDS011;65652;53.132;18.026;2024-01-30T10:52:43;17.90;;;7.50;;
76727;SDS011;65652;53.132;18.026;2024-01-30T10:55:09;18.80;;;8.00;;
76727;SDS011;65652;53.132;18.026;2024-01-30T10:57:36;22.20;;;9.10;;
76727;SDS011;65652;53.132;18.026;2024-01-30T11:00:04;19.20;;;8.40;;
76727;SDS011;65652;53.132;18.026;2024-01-30T11:02:39;17.80;;;8.00;;
76727;SDS011;65652;53.132;18.026;2024-01-30T11:05:07;18.20;;;7.20;;
76727;SDS011;65652;53.132;18.026;2024-01-30T11:07:34;17.50;;;8.70;;
76727;SDS011;65652;53.132;18.026;2024-01-30T11:10:02;18.60;;;7.00;;
76727;SDS011;65652;53.132;18.026;2024-01-30T11:12:33;18.10;;;8.50;;
76727;SDS011;65652;53.132;18.026;2024-01-30T11:15:13;16.60;;;6.90;;
76727;SDS011;65652;53.132;18.026;2024-01-30T11:17:41;18.60;;;8.60;;
76727;SDS011;65652;53.132;18.026;2024-01-30T11:20:11;19.70;;;8.50;;
76727;SDS011;65652;53.132;18.026;2024-01-30T11:22:41;17.30;;;7.50;;
76727;SDS011;65652;53.132;18.026;2024-01-30T11:25:10;16.20;;;7.80;;
76727;SDS011;65652;53.132;18.026;2024-01-30T11:27:37;16.60;;;7.00;;
76727;SDS011;65652;53.132;18.026;2024-01-30T11:30:05;19.90;;;8.10;;
76727;SDS011;65652;53.132;18.026;2024-01-30T11:32:31;19.70;;;8.40;;
76727;SDS011;65652;53.132;18.026;2024-01-30T11:34:58;15.60;;;6.60;;
76727;SDS011;65652;53.132;18.026;2024-01-30T11:37:24;21.70;;;9.40;;
76727;SDS011;65652;53.132;18.026;2024-01-30T11:39:53;16.90;;;7.60;;
76727;SDS011;65652;53.132;18.026;2024-01-30T11:42:19;18.70;;;8.40;;
76727;SDS011;65652;53.132;18.026;2024-01-30T11:44:47;21.20;;;9.10;;
76727;SDS011;65652;53.132;18.026;2024-01-30T11:47:14;23.50;;;8.60;;
76727;SDS011;65652;53.132;18.026;2024-01-30T11:49:41;18.40;;;8.70;;
76727;SDS011;65652;53.132;18.026;2024-01-30T11:52:09;15.90;;;7.40;;
76727;SDS011;65652;53.132;18.026;2024-01-30T11:54:35;15.80;;;7.30;;
76727;SDS011;65652;53.132;18.026;2024-01-30T11:57:01;16.30;;;6.70;;
76727;SDS011;65652;53.132;18.026;2024-01-30T11:59:27;18.30;;;7.40;;
76727;SDS011;65652;53.132;18.026;2024-01-30T12:01:54;16.70;;;7.30;;
76727;SDS011;65652;53.132;18.026;2024-01-30T12:04:20;16.90;;;7.40;;
76727;SDS011;65652;53.132;18.026;2024-01-30T12:06:46;15.60;;;7.90;;
76727;SDS011;65652;53.132;18.026;2024-01-30T12:09:17;14.00;;;6.70;;
76727;SDS011;65652;53.132;18.026;2024-01-30T12:11:46;16.30;;;7.50;;
76727;SDS011;65652;53.132;18.026;2024-01-30T12:14:13;16.90;;;6.80;;
76727;SDS011;65652;53.132;18.026;2024-01-30T12:16:40;17.40;;;8.40;;
76727;SDS011;65652;53.132;18.026;2024-01-30T12:19:10;15.30;;;7.20;;
76727;SDS011;65652;53.132;18.026;2024-01-30T12:21:37;14.10;;;7.20;;
76727;SDS011;65652;53.132;18.026;2024-01-30T12:24:04;17.90;;;8.30;;
76727;SDS011;65652;53.132;18.026;2024-01-30T12:26:33;17.10;;;8.20;;
76727;SDS011;65652;53.132;18.026;2024-01-30T12:28:59;19.50;;;8.20;;
76727;SDS011;65652;53.132;18.026;2024-01-30T12:31:27;16.00;;;7.70;;
76727;SDS011;65652;53.132;18.026;2024-01-30T12:33:54;15.40;;;7.30;;
76727;SDS011;65652;53.132;18.026;2024-01-30T12:36:21;14.80;;;7.90;;
76727;SDS011;65652;53.132;18.026;2024-01-30T12:38:48;17.80;;;7.70;;
76727;SDS011;65652;53.132;18.026;2024-01-30T12:41:14;15.80;;;7.70;;
76727;SDS011;65652;53.132;18.026;2024-01-30T12:43:41;18.80;;;7.60;;
76727;SDS011;65652;53.132;18.026;2024-01-30T12:46:07;14.10;;;6.90;;
76727;SDS011;65652;53.132;18.026;2024-01-30T12:48:33;15.70;;;7.40;;
76727;SDS011;65652;53.132;18.026;2024-01-30T12:51:00;18.20;;;7.80;;
76727;SDS011;65652;53.132;18.026;2024-01-30T12:53:26;14.90;;;7.90;;
76727;SDS011;65652;53.132;18.026;2024-01-30T12:55:52;16.00;;;7.30;;
76727;SDS011;65652;53.132;18.026;2024-01-30T12:58:20;16.00;;;8.30;;
76727;SDS011;65652;53.132;18.026;2024-01-30T13:00:46;18.40;;;8.10;;
76727;SDS011;65652;53.132;18.026;2024-01-30T13:03:13;16.60;;;7.80;;
76727;SDS011;65652;53.132;18.026;2024-01-30T13:05:39;15.90;;;7.80;;
76727;SDS011;65652;53.132;18.026;2024-01-30T13:08:05;16.50;;;7.40;;
76727;SDS011;65652;53.132;18.026;2024-01-30T13:10:31;16.10;;;8.30;;
76727;SDS011;65652;53.132;18.026;2024-01-30T13:12:58;16.80;;;6.40;;
76727;SDS011;65652;53.132;18.026;2024-01-30T13:15:24;14.10;;;7.10;;
76727;SDS011;65652;53.132;18.026;2024-01-30T13:17:50;18.00;;;8.50;;
76727;SDS011;65652;53.132;18.026;2024-01-30T13:20:16;17.60;;;8.50;;
76727;SDS011;65652;53.132;18.026;2024-01-30T13:22:45;15.40;;;7.40;;
76727;SDS011;65652;53.132;18.026;2024-01-30T13:25:12;16.30;;;8.10;;
76727;SDS011;65652;53.132;18.026;2024-01-30T13:27:39;15.80;;;7.20;;
76727;SDS011;65652;53.132;18.026;2024-01-30T13:30:06;16.90;;;7.20;;
76727;SDS011;65652;53.132;18.026;2024-01-30T13:32:33;17.70;;;7.50;;
76727;SDS011;65652;53.132;18.026;2024-01-30T13:35:00;14.50;;;7.70;;
76727;SDS011;65652;53.132;18.026;2024-01-30T13:37:26;15.30;;;6.90;;
76727;SDS011;65652;53.132;18.026;2024-01-30T13:39:52;18.80;;;8.80;;
76727;SDS011;65652;53.132;18.026;2024-01-30T13:42:18;15.90;;;7.60;;
76727;SDS011;65652;53.132;18.026;2024-01-30T13:44:44;15.30;;;7.00;;
76727;SDS011;65652;53.132;18.026;2024-01-30T13:47:11;16.10;;;7.80;;
76727;SDS011;65652;53.132;18.026;2024-01-30T13:49:37;15.40;;;7.10;;
76727;SDS011;65652;53.132;18.026;2024-01-30T13:52:03;17.50;;;8.10;;
76727;SDS011;65652;53.132;18.026;2024-01-30T13:54:30;15.90;;;7.80;;
76727;SDS011;65652;53.132;18.026;2024-01-30T13:56:57;10.60;;;5.40;;
76727;SDS011;65652;53.132;18.026;2024-01-30T13:59:23;20.10;;;8.10;;
76727;SDS011;65652;53.132;18.026;2024-01-30T14:01:51;18.60;;;7.50;;
76727;SDS011;65652;53.132;18.026;2024-01-30T14:04:17;18.50;;;8.90;;
76727;SDS011;65652;53.132;18.026;2024-01-30T14:06:44;19.70;;;8.20;;
76727;SDS011;65652;53.132;18.026;2024-01-30T14:09:10;17.80;;;7.50;;
76727;SDS011;65652;53.132;18.026;2024-01-30T14:11:36;16.70;;;7.90;;
76727;SDS011;65652;53.132;18.026;2024-01-30T14:14:02;16.50;;;8.00;;
76727;SDS011;65652;53.132;18.026;2024-01-30T14:16:29;17.30;;;8.30;;
76727;SDS011;65652;53.132;18.026;2024-01-30T14:18:55;17.00;;;8.40;;